Terminal Aerodrome Forecast
Issued by NWS

Home | Current Version | Previous Version | Text Only | Print | Product List | Glossary On
Versions: 1 2 3 4 5 6 7 8 9 10 11 12 13
000
FTUS45 KTFX 011700
TAFBZN
TAF
KBZN 011737Z 0118/0218 VRB05KT P6SM BKN200
     FM020000 17007KT P6SM VCSH BKN040 OVC060 PROB30 0203/0209 3SM
      -RASN BR OVC025
     FM021200 24007KT P6SM BKN040 OVC060=

USA.gov is the U.S. government's official web portal to all federal, state and local government web resources and services.